createdAt,value
2023-01-19T00:00:16.265Z,7.30
2023-01-19T00:01:16.459Z,7.10
2023-01-19T00:02:16.802Z,7.90
2023-01-19T00:03:17.141Z,7.00
2023-01-19T00:04:17.380Z,6.40
2023-01-19T00:05:17.589Z,6.70
2023-01-19T00:06:17.982Z,6.60
2023-01-19T00:07:18.211Z,6.80
2023-01-19T00:08:18.564Z,7.40
2023-01-19T00:09:18.809Z,7.50
2023-01-19T00:10:19.022Z,7.00
2023-01-19T00:11:19.383Z,7.00
2023-01-19T00:12:19.581Z,7.50
2023-01-19T00:13:19.944Z,7.80
2023-01-19T00:14:20.191Z,7.50
2023-01-19T00:15:20.415Z,6.70
2023-01-19T00:16:20.681Z,6.80
2023-01-19T00:17:20.907Z,6.70
2023-01-19T00:18:21.289Z,7.80
2023-01-19T00:19:21.542Z,7.90
2023-01-19T00:20:21.763Z,8.40
2023-01-19T00:21:22.096Z,7.80
2023-01-19T00:22:22.422Z,7.70
2023-01-19T00:23:22.664Z,7.40
2023-01-19T00:24:23.023Z,7.20
2023-01-19T00:25:23.243Z,7.90
2023-01-19T00:26:23.579Z,8.20
2023-01-19T00:27:23.911Z,8.30
2023-01-19T00:28:24.253Z,7.30
2023-01-19T00:29:24.600Z,7.30
2023-01-19T00:30:24.822Z,7.40
2023-01-19T00:31:25.185Z,7.30
2023-01-19T00:32:25.413Z,8.10
2023-01-19T00:33:25.753Z,8.50
2023-01-19T00:34:26.112Z,8.80
2023-01-19T00:35:26.338Z,7.80
2023-01-19T00:36:26.654Z,9.80
2023-01-19T00:37:27.007Z,9.30
2023-01-19T00:38:27.216Z,7.90
2023-01-19T00:39:27.519Z,9.10
2023-01-19T00:40:27.723Z,9.00
2023-01-19T00:41:28.056Z,9.60
2023-01-19T00:42:28.410Z,8.60
2023-01-19T00:43:28.639Z,8.80
2023-01-19T00:44:28.983Z,9.40
2023-01-19T00:45:29.252Z,9.30
2023-01-19T00:46:29.487Z,8.40
2023-01-19T00:47:29.712Z,9.70
2023-01-19T00:48:30.047Z,9.10
2023-01-19T00:49:30.428Z,9.40
2023-01-19T00:50:30.636Z,9.00
2023-01-19T00:51:30.964Z,9.80
2023-01-19T00:52:31.293Z,9.50
2023-01-19T00:53:31.624Z,10.20
2023-01-19T00:54:31.903Z,9.50
2023-01-19T00:55:32.117Z,10.50
2023-01-19T00:56:32.380Z,10.90
2023-01-19T00:57:32.594Z,11.60
2023-01-19T00:58:32.842Z,12.00
2023-01-19T00:59:33.111Z,11.40
2023-01-19T01:00:33.322Z,9.50
2023-01-19T01:01:45.866Z,9.50
2023-01-19T01:02:35.175Z,10.10
2023-01-19T01:03:34.237Z,8.90
2023-01-19T01:04:34.585Z,9.50
2023-01-19T01:05:34.813Z,8.90
2023-01-19T01:06:35.156Z,9.60
2023-01-19T01:07:35.382Z,9.70
2023-01-19T01:08:35.595Z,9.60
2023-01-19T01:09:35.945Z,9.60
2023-01-19T01:10:36.159Z,9.50
2023-01-19T01:11:36.507Z,9.80
2023-01-19T01:12:36.840Z,10.00
2023-01-19T01:13:37.074Z,9.50
2023-01-19T01:14:37.364Z,9.30
2023-01-19T01:15:37.635Z,9.70
2023-01-19T01:16:38.019Z,10.10
2023-01-19T01:17:38.275Z,10.30
2023-01-19T01:18:38.500Z,10.30
2023-01-19T01:19:38.755Z,10.30
2023-01-19T01:20:38.975Z,9.80
2023-01-19T01:21:39.325Z,9.70
2023-01-19T01:22:39.646Z,10.80
2023-01-19T01:23:39.877Z,10.90
2023-01-19T01:24:40.254Z,10.90
2023-01-19T01:25:40.471Z,11.40
2023-01-19T01:26:40.712Z,10.70
2023-01-19T01:27:40.946Z,10.90
2023-01-19T01:28:41.186Z,10.60
2023-01-19T01:29:41.438Z,10.20
2023-01-19T01:30:41.659Z,10.60
2023-01-19T01:31:41.959Z,11.80
2023-01-19T01:32:42.168Z,11.50
2023-01-19T01:33:42.416Z,11.90
2023-01-19T01:34:42.695Z,9.90
2023-01-19T01:35:42.898Z,10.50
2023-01-19T01:36:43.132Z,10.50
2023-01-19T01:37:43.481Z,10.70
2023-01-19T01:38:43.704Z,10.10
2023-01-19T01:39:43.965Z,11.30
2023-01-19T01:40:44.195Z,12.60
2023-01-19T01:41:44.427Z,10.70
2023-01-19T01:42:44.727Z,10.20
2023-01-19T01:43:45.045Z,10.30
2023-01-19T01:44:45.298Z,9.60
2023-01-19T01:45:45.581Z,10.60
2023-01-19T01:46:45.809Z,10.60
2023-01-19T01:47:46.050Z,10.40
2023-01-19T01:48:46.399Z,11.80
2023-01-19T01:49:46.650Z,11.00
2023-01-19T01:50:46.898Z,12.10
2023-01-19T01:51:47.160Z,10.90
2023-01-19T01:53:06.623Z,12.00
2023-01-19T01:53:48.610Z,10.70
2023-01-19T01:54:47.914Z,11.90
2023-01-19T01:55:48.217Z,12.60
2023-01-19T01:56:48.482Z,10.90
2023-01-19T01:57:48.755Z,11.50
2023-01-19T01:58:48.969Z,10.50
2023-01-19T01:59:49.217Z,11.60
2023-01-19T02:00:49.519Z,12.10
2023-01-19T02:01:49.815Z,11.50
2023-01-19T02:02:49.958Z,12.00
2023-01-19T02:03:50.200Z,11.50
2023-01-19T02:04:50.470Z,12.60
2023-01-19T02:05:50.697Z,11.40
2023-01-19T02:06:50.932Z,10.60
2023-01-19T02:07:51.290Z,10.60
2023-01-19T02:08:51.520Z,11.40
2023-01-19T02:09:51.796Z,10.70
2023-01-19T02:10:52.029Z,11.50
2023-01-19T02:11:52.260Z,10.80
2023-01-19T02:12:52.488Z,11.60
2023-01-19T02:13:52.751Z,11.00
2023-01-19T02:14:53.003Z,11.00
2023-01-19T02:15:53.257Z,10.70
2023-01-19T02:16:53.502Z,11.70
2023-01-19T02:17:53.739Z,11.30
2023-01-19T02:18:53.989Z,10.90
2023-01-19T02:19:54.242Z,11.30
2023-01-19T02:20:54.479Z,10.80
2023-01-19T02:21:54.726Z,11.30
2023-01-19T02:22:54.962Z,11.00
2023-01-19T02:23:55.226Z,11.70
2023-01-19T02:24:55.491Z,11.40
2023-01-19T02:25:55.717Z,10.80
2023-01-19T02:26:56.065Z,11.50
2023-01-19T02:27:56.310Z,10.70
2023-01-19T02:28:56.535Z,10.50
2023-01-19T02:29:56.835Z,11.70
2023-01-19T02:30:57.163Z,11.20
2023-01-19T02:31:57.376Z,10.20
2023-01-19T02:32:57.677Z,10.90
2023-01-19T02:33:57.942Z,11.70
2023-01-19T02:34:58.229Z,10.40
2023-01-19T02:35:58.494Z,11.50
2023-01-19T02:36:58.744Z,10.40
2023-01-19T02:37:58.984Z,10.60
2023-01-19T02:38:59.192Z,10.70
2023-01-19T02:39:59.560Z,12.00
2023-01-19T02:40:59.816Z,11.40
2023-01-19T02:42:00.082Z,10.30
2023-01-19T02:43:00.475Z,11.10
2023-01-19T02:44:00.539Z,10.80
2023-01-19T02:45:00.905Z,11.00
2023-01-19T02:46:01.194Z,11.20
2023-01-19T02:47:01.452Z,10.30
2023-01-19T02:48:01.722Z,11.10
2023-01-19T02:49:02.000Z,11.40
2023-01-19T02:50:02.278Z,12.00
2023-01-19T02:51:02.526Z,11.60
2023-01-19T02:52:02.770Z,10.80
2023-01-19T02:53:03.320Z,11.80
2023-01-19T02:54:03.313Z,12.20
2023-01-19T02:55:03.588Z,11.50
2023-01-19T02:56:03.822Z,10.70
2023-01-19T02:57:04.051Z,11.20
2023-01-19T02:58:04.304Z,11.40
2023-01-19T02:59:04.555Z,11.60
2023-01-19T03:00:04.832Z,10.80
2023-01-19T03:01:05.169Z,10.90
2023-01-19T03:02:05.588Z,12.30
2023-01-19T03:03:05.774Z,11.20
2023-01-19T03:04:06.013Z,11.20
2023-01-19T03:05:06.272Z,11.90
2023-01-19T03:06:06.513Z,11.10
2023-01-19T03:07:06.752Z,10.20
2023-01-19T03:08:07.113Z,10.90
2023-01-19T03:09:07.344Z,11.30
2023-01-19T03:10:07.619Z,10.30
2023-01-19T03:11:07.882Z,11.30
2023-01-19T03:12:08.144Z,11.90
2023-01-19T03:13:08.390Z,11.00
2023-01-19T03:14:08.642Z,11.20
2023-01-19T03:15:08.903Z,11.90
2023-01-19T03:16:09.205Z,10.20
2023-01-19T03:17:09.434Z,11.20
2023-01-19T03:18:09.697Z,11.00
2023-01-19T03:19:09.999Z,10.00
2023-01-19T03:20:10.249Z,11.50
2023-01-19T03:21:10.491Z,11.20
2023-01-19T03:22:10.744Z,10.60
2023-01-19T04:04:22.863Z,13.80
2023-01-19T04:05:21.952Z,14.10
2023-01-19T04:06:22.228Z,15.10
2023-01-19T04:07:22.631Z,14.40
2023-01-19T04:08:22.749Z,14.40
2023-01-19T04:09:22.947Z,14.30
2023-01-19T04:10:23.202Z,15.80
2023-01-19T04:11:23.468Z,14.90
2023-01-19T04:12:23.744Z,14.20
2023-01-19T04:13:24.123Z,15.40
2023-01-19T04:14:24.355Z,15.80
2023-01-19T04:15:24.727Z,14.70
2023-01-19T04:16:24.876Z,15.40
2023-01-19T04:17:25.327Z,16.30
2023-01-19T04:18:25.479Z,14.60
2023-01-19T04:19:26.422Z,14.60
2023-01-19T04:20:26.091Z,14.60
2023-01-19T04:21:26.263Z,14.20
2023-01-19T04:22:26.596Z,15.00
2023-01-19T04:23:26.879Z,14.90
2023-01-19T04:24:27.290Z,15.00
2023-01-19T04:25:27.511Z,15.20
2023-01-19T04:26:27.664Z,14.20
2023-01-19T04:27:27.996Z,15.70
2023-01-19T04:28:28.286Z,15.70
2023-01-19T04:29:28.535Z,14.60
2023-01-19T04:30:28.882Z,14.50
2023-01-19T04:31:29.162Z,15.00
2023-01-19T04:32:29.473Z,14.40
2023-01-19T04:33:29.802Z,14.20
2023-01-19T04:34:30.074Z,15.40
2023-01-19T04:35:30.357Z,15.30
2023-01-19T04:36:30.665Z,14.90
2023-01-19T04:37:30.908Z,14.10
2023-01-19T04:38:31.195Z,15.00
2023-01-19T04:39:31.454Z,15.00
2023-01-19T04:40:31.747Z,15.70
2023-01-19T04:41:32.039Z,15.50
2023-01-19T04:42:32.308Z,15.30
2023-01-19T04:43:32.595Z,15.30
2023-01-19T04:44:32.837Z,15.20
2023-01-19T04:45:33.085Z,15.20
2023-01-19T04:46:33.556Z,15.70
2023-01-19T04:47:33.728Z,15.70
2023-01-19T04:48:34.060Z,15.00
2023-01-19T04:49:34.411Z,15.10
2023-01-19T04:50:34.654Z,14.20
2023-01-19T04:51:34.949Z,15.30
2023-01-19T04:52:35.224Z,15.20
2023-01-19T04:53:35.503Z,14.90
2023-01-19T04:54:35.835Z,15.70
2023-01-19T04:55:36.078Z,14.30
2023-01-19T04:56:36.371Z,14.70
2023-01-19T04:57:36.637Z,15.00
2023-01-19T04:58:36.905Z,14.60
2023-01-19T04:59:37.193Z,15.10
2023-01-19T05:00:37.415Z,15.20
2023-01-19T05:01:37.750Z,16.20
2023-01-19T05:02:38.139Z,14.20
2023-01-19T05:03:38.274Z,15.60
2023-01-19T05:04:38.585Z,16.00
2023-01-19T05:05:38.879Z,15.60
2023-01-19T05:06:39.190Z,15.20
2023-01-19T05:07:39.447Z,16.10
2023-01-19T05:08:39.701Z,15.60
2023-01-19T05:09:40.032Z,15.50
2023-01-19T05:10:40.219Z,15.50
2023-01-19T05:11:40.529Z,14.70
2023-01-19T05:12:40.869Z,14.80
2023-01-19T05:13:41.027Z,13.90
2023-01-19T05:14:41.340Z,14.20
2023-01-19T05:15:41.618Z,13.60
2023-01-19T05:16:41.935Z,14.40
2023-01-19T05:17:42.289Z,14.00
2023-01-19T05:18:42.417Z,14.20
2023-01-19T05:19:42.677Z,14.90
2023-01-19T05:20:42.979Z,14.40
2023-01-19T05:21:43.259Z,15.20
2023-01-19T05:22:43.544Z,14.70
2023-01-19T05:23:43.822Z,14.80
2023-01-19T05:24:44.058Z,13.80
2023-01-19T05:25:44.331Z,14.40
2023-01-19T05:26:44.617Z,13.90
2023-01-19T05:27:44.894Z,14.10
2023-01-19T05:28:45.144Z,14.80
2023-01-19T05:29:45.372Z,14.00
2023-01-19T05:30:45.673Z,14.10
2023-01-19T05:31:45.954Z,13.70
2023-01-19T05:32:46.261Z,14.40
2023-01-19T05:33:46.581Z,14.60
2023-01-19T05:34:46.879Z,12.80
2023-01-19T05:35:47.167Z,13.40
2023-01-19T05:36:47.467Z,13.80
2023-01-19T05:37:47.735Z,13.10
2023-01-19T05:38:48.019Z,13.10
2023-01-19T05:39:48.324Z,13.20
2023-01-19T05:40:48.627Z,13.20
2023-01-19T05:41:48.887Z,13.50
2023-01-19T05:42:49.173Z,13.60
2023-01-19T05:43:49.509Z,14.00
2023-01-19T05:44:49.765Z,13.50
2023-01-19T05:45:50.020Z,13.60
2023-01-19T05:46:50.344Z,13.70
2023-01-19T05:47:50.631Z,12.90
2023-01-19T05:48:50.903Z,13.40
2023-01-19T05:49:51.178Z,13.00
2023-01-19T05:50:51.480Z,13.40
2023-01-19T05:51:51.788Z,13.60
2023-01-19T05:52:52.081Z,12.80
2023-01-19T05:53:52.393Z,13.20
2023-01-19T05:54:52.675Z,12.80
2023-01-19T05:55:52.949Z,12.40
2023-01-19T05:56:53.256Z,12.90
2023-01-19T05:57:53.546Z,12.30
2023-01-19T05:58:53.816Z,13.10
2023-01-19T05:59:54.115Z,13.30
2023-01-19T06:00:54.500Z,15.90
2023-01-19T06:01:54.664Z,15.00
2023-01-19T06:02:55.001Z,13.60
2023-01-19T06:03:55.118Z,12.80
2023-01-19T06:04:55.402Z,13.60
2023-01-19T06:05:55.683Z,12.70
2023-01-19T06:06:56.025Z,12.80
2023-01-19T06:07:56.291Z,12.50
2023-01-19T06:08:56.631Z,12.00
2023-01-19T06:09:56.948Z,12.80
2023-01-19T06:10:57.133Z,12.90
2023-01-19T06:11:57.429Z,12.40
2023-01-19T06:12:57.685Z,13.20
2023-01-19T06:13:57.985Z,11.80
2023-01-19T06:14:58.224Z,13.80
2023-01-19T06:15:58.516Z,12.90
2023-01-19T06:16:58.811Z,12.30
2023-01-19T06:17:59.070Z,12.60
2023-01-19T06:18:59.324Z,12.50
2023-01-19T06:19:59.633Z,13.00
2023-01-19T06:20:59.899Z,13.90
2023-01-19T06:22:00.191Z,12.60
2023-01-19T06:23:00.843Z,14.10
2023-01-19T06:24:00.780Z,12.60
2023-01-19T06:25:01.149Z,14.10
2023-01-19T06:26:01.474Z,13.20
2023-01-19T06:27:01.833Z,13.80
2023-01-19T06:28:01.999Z,13.10
2023-01-19T06:29:02.305Z,13.20
2023-01-19T06:30:02.562Z,13.70
2023-01-19T06:31:02.864Z,14.20
2023-01-19T06:32:03.285Z,12.50
2023-01-19T06:33:03.628Z,12.90
2023-01-19T06:34:03.790Z,13.60
2023-01-19T06:35:03.942Z,14.90
2023-01-19T06:36:04.252Z,15.60
2023-01-19T06:37:04.568Z,15.10
2023-01-19T06:38:04.880Z,16.70
2023-01-19T06:39:05.146Z,15.40
2023-01-19T06:40:05.413Z,16.40
2023-01-19T06:41:05.693Z,15.30
2023-01-19T06:42:05.996Z,16.30
2023-01-19T06:43:06.281Z,14.10
2023-01-19T06:44:06.575Z,14.70
2023-01-19T06:45:06.867Z,13.90
2023-01-19T06:46:07.226Z,13.50
2023-01-19T06:47:15.002Z,13.50
2023-01-19T06:48:08.681Z,13.60
2023-01-19T06:49:07.938Z,13.00
2023-01-19T06:50:08.256Z,12.10
2023-01-19T06:51:08.646Z,12.40
2023-01-19T06:52:08.826Z,13.00
2023-01-19T06:53:09.185Z,12.30
2023-01-19T06:54:09.386Z,12.60
2023-01-19T06:55:09.675Z,13.30
2023-01-19T06:56:09.924Z,13.90
2023-01-19T06:57:10.288Z,13.50
2023-01-19T06:58:10.638Z,14.10
2023-01-19T06:59:10.991Z,14.60
2023-01-19T07:00:11.161Z,15.10
2023-01-19T07:01:11.502Z,14.70
2023-01-19T07:02:28.006Z,15.10
2023-01-19T07:03:13.059Z,14.60
2023-01-19T07:04:12.246Z,15.00
2023-01-19T07:05:12.511Z,13.70
2023-01-19T07:06:12.787Z,15.30
2023-01-19T07:07:13.153Z,14.80
2023-01-19T07:08:13.356Z,14.00
2023-01-19T07:09:16.791Z,13.80
2023-01-19T07:10:13.875Z,12.90
2023-01-19T07:11:23.175Z,12.90
2023-01-19T07:12:15.485Z,13.70
2023-01-19T07:13:14.815Z,12.90
2023-01-19T07:14:14.999Z,12.50
2023-01-19T07:15:15.312Z,11.90
2023-01-19T07:16:15.661Z,13.40
2023-01-19T07:17:15.843Z,14.00
2023-01-19T07:18:16.191Z,12.60
2023-01-19T07:19:16.508Z,12.60
2023-01-19T07:20:16.822Z,12.60
2023-01-19T07:21:17.167Z,12.20
2023-01-19T07:22:17.479Z,11.90
2023-01-19T07:23:17.806Z,12.30
2023-01-19T07:24:18.993Z,12.20
2023-01-19T07:25:18.326Z,12.00
2023-01-19T07:26:18.686Z,12.70
2023-01-19T07:27:18.898Z,11.40
2023-01-19T07:28:19.268Z,12.20
2023-01-19T07:29:19.412Z,12.40
2023-01-19T07:30:19.724Z,11.90
2023-01-19T07:31:20.124Z,11.90
2023-01-19T07:32:20.368Z,12.70
2023-01-19T07:33:20.573Z,13.40
2023-01-19T07:34:20.847Z,13.30
2023-01-19T07:35:21.025Z,14.40
2023-01-19T07:36:21.338Z,14.00
2023-01-19T07:37:21.698Z,14.00
2023-01-19T07:38:21.891Z,13.60
2023-01-19T07:39:22.207Z,14.20
2023-01-19T07:40:23.989Z,12.50
2023-01-19T07:41:22.857Z,13.10
2023-01-19T07:42:23.280Z,11.80
2023-01-19T07:43:23.439Z,13.20
2023-01-19T07:44:23.784Z,12.10
2023-01-19T07:45:24.095Z,12.90
2023-01-19T07:46:24.464Z,12.90
2023-01-19T07:47:24.673Z,14.20
2023-01-19T07:48:24.995Z,13.40
2023-01-19T07:49:25.333Z,14.80
2023-01-19T07:50:25.644Z,15.00
2023-01-19T07:51:25.787Z,14.80
2023-01-19T07:52:26.139Z,15.40
2023-01-19T07:53:26.340Z,15.00
2023-01-19T07:54:26.659Z,14.40
2023-01-19T07:55:26.990Z,14.70
2023-01-19T07:56:27.317Z,14.20
2023-01-19T07:57:27.654Z,14.50
2023-01-19T07:58:27.941Z,15.00
2023-01-19T07:59:28.229Z,13.80
2023-01-19T08:00:28.669Z,13.50
2023-01-19T08:01:28.946Z,12.90
2023-01-19T08:02:29.334Z,12.50
2023-01-19T08:03:29.560Z,12.60
2023-01-19T08:04:29.725Z,13.00
2023-01-19T08:05:29.965Z,12.70
2023-01-19T08:06:30.282Z,11.90
2023-01-19T08:07:30.660Z,13.20
2023-01-19T08:08:30.902Z,13.40
2023-01-19T08:09:31.111Z,12.70
2023-01-19T08:10:31.636Z,13.40
2023-01-19T08:11:31.724Z,13.50
2023-01-19T08:12:31.909Z,13.00
2023-01-19T08:13:32.263Z,13.50
2023-01-19T08:14:33.036Z,14.00
2023-01-19T08:15:33.116Z,12.60
2023-01-19T08:16:33.152Z,12.70
2023-01-19T08:17:36.985Z,12.30
2023-01-19T08:18:34.757Z,13.50
2023-01-19T08:19:34.734Z,14.80
2023-01-19T08:20:34.365Z,12.70
2023-01-19T08:21:34.931Z,13.50
2023-01-19T08:22:35.042Z,12.90
2023-01-19T08:23:35.941Z,14.80
2023-01-19T08:24:35.568Z,14.40
2023-01-19T08:25:35.829Z,14.40
2023-01-19T08:26:36.086Z,13.20
2023-01-19T08:27:36.634Z,13.30
2023-01-19T08:28:36.571Z,14.80
2023-01-19T08:29:36.883Z,14.90
2023-01-19T08:30:37.236Z,12.90
2023-01-19T08:31:37.546Z,13.20
2023-01-19T08:32:37.745Z,14.40
2023-01-19T08:33:38.073Z,13.00
2023-01-19T08:34:38.380Z,13.60
2023-01-19T08:35:38.688Z,14.70
2023-01-19T08:36:39.012Z,14.20
2023-01-19T08:37:39.522Z,14.10
2023-01-19T08:38:39.575Z,14.30
2023-01-19T08:39:39.854Z,13.80
2023-01-19T08:40:40.176Z,12.20
2023-01-19T08:41:40.501Z,11.90
2023-01-19T08:42:40.916Z,11.50
2023-01-19T08:43:41.792Z,11.90
2023-01-19T08:44:57.234Z,13.20
2023-01-19T08:45:42.660Z,11.60
2023-01-19T08:46:41.997Z,11.90
2023-01-19T08:47:42.249Z,12.20
2023-01-19T08:48:42.569Z,11.60
2023-01-19T08:49:43.018Z,12.00
2023-01-19T08:50:43.189Z,12.50
2023-01-19T08:51:43.493Z,12.40
2023-01-19T08:52:43.847Z,12.90
2023-01-19T08:53:51.598Z,13.10
2023-01-19T08:54:44.389Z,12.10
2023-01-19T08:55:44.731Z,12.40
2023-01-19T08:56:45.775Z,13.00
2023-01-19T08:57:45.299Z,12.80
2023-01-19T08:58:46.707Z,12.30
2023-01-19T08:59:45.831Z,12.10
2023-01-19T09:00:46.170Z,13.60
2023-01-19T09:01:46.695Z,13.40
2023-01-19T09:02:46.789Z,13.00
2023-01-19T09:03:46.960Z,13.10
2023-01-19T09:04:48.191Z,14.20
2023-01-19T09:05:47.514Z,13.30
2023-01-19T09:06:47.804Z,12.00
2023-01-19T09:07:48.187Z,11.90
2023-01-19T09:08:48.360Z,11.80
2023-01-19T09:09:48.718Z,12.70
2023-01-19T09:10:49.016Z,12.60
2023-01-19T09:11:49.291Z,12.60
2023-01-19T09:12:49.621Z,13.50
2023-01-19T09:13:49.951Z,13.40
2023-01-19T09:14:50.184Z,13.20
2023-01-19T09:15:50.543Z,13.00
2023-01-19T09:16:50.740Z,13.30
2023-01-19T09:17:51.068Z,14.60
2023-01-19T09:18:51.375Z,13.80
2023-01-19T09:19:51.735Z,14.50
2023-01-19T09:20:51.907Z,12.50
2023-01-19T09:21:52.210Z,14.00
2023-01-19T09:22:52.572Z,14.40
2023-01-19T09:24:00.432Z,13.90
2023-01-19T09:24:53.104Z,13.50
2023-01-19T09:25:53.425Z,13.00
2023-01-19T09:26:53.804Z,13.30
2023-01-19T09:27:54.013Z,14.20
2023-01-19T09:28:54.303Z,15.00
2023-01-19T09:29:54.597Z,13.60
2023-01-19T09:30:55.159Z,14.90
2023-01-19T09:31:55.324Z,12.70
2023-01-19T09:32:55.542Z,13.70
2023-01-19T09:33:55.721Z,12.70
2023-01-19T09:34:56.007Z,13.40
2023-01-19T09:35:56.328Z,12.90
2023-01-19T09:36:56.678Z,14.00
2023-01-19T09:37:56.995Z,13.40
2023-01-19T09:38:57.349Z,12.70
2023-01-19T09:39:57.638Z,12.80
2023-01-19T09:40:57.931Z,14.10
2023-01-19T09:41:58.231Z,13.00
2023-01-19T09:42:58.590Z,13.30
2023-01-19T09:43:58.778Z,12.30
2023-01-19T09:44:59.061Z,13.80
2023-01-19T09:45:59.408Z,12.90
2023-01-19T09:46:59.709Z,13.70
2023-01-19T09:48:00.354Z,12.50
2023-01-19T09:49:00.266Z,13.50
2023-01-19T09:50:00.570Z,13.70
2023-01-19T09:51:00.869Z,13.20
2023-01-19T09:52:01.211Z,15.60
2023-01-19T09:53:01.930Z,13.90
2023-01-19T09:54:01.880Z,14.40
2023-01-19T09:55:02.063Z,14.20
2023-01-19T09:56:02.391Z,14.00
2023-01-19T09:57:02.670Z,15.20
2023-01-19T09:58:03.281Z,14.30
2023-01-19T09:59:03.244Z,13.60
2023-01-19T10:00:03.582Z,13.60
2023-01-19T10:01:03.934Z,13.90
2023-01-19T10:02:04.116Z,14.00
2023-01-19T10:03:04.596Z,13.30
2023-01-19T10:04:04.645Z,13.10
2023-01-19T10:05:04.960Z,14.10
2023-01-19T10:06:05.281Z,13.10
2023-01-19T10:07:05.562Z,13.70
2023-01-19T10:08:05.866Z,13.20
2023-01-19T10:09:06.151Z,14.20
2023-01-19T10:10:06.454Z,13.80
2023-01-19T10:11:06.743Z,13.40
2023-01-19T10:12:07.060Z,14.20
2023-01-19T10:13:07.352Z,13.90
2023-01-19T10:14:08.920Z,13.90
2023-01-19T10:15:07.920Z,14.70
2023-01-19T10:16:08.265Z,14.00
2023-01-19T10:17:08.474Z,13.90
2023-01-19T10:18:08.797Z,14.00
2023-01-19T10:19:09.096Z,15.30
2023-01-19T10:20:09.392Z,13.90
2023-01-19T10:21:09.731Z,13.60
2023-01-19T10:22:10.023Z,14.90
2023-01-19T10:23:10.346Z,14.80
2023-01-19T10:24:10.629Z,14.40
2023-01-19T10:25:10.948Z,14.80
2023-01-19T10:26:11.268Z,13.30
2023-01-19T10:27:11.585Z,15.10
2023-01-19T10:28:11.911Z,14.60
2023-01-19T10:29:12.229Z,14.00
2023-01-19T10:30:12.604Z,14.40
2023-01-19T10:31:12.967Z,15.20
2023-01-19T10:32:13.069Z,14.40
2023-01-19T10:33:13.334Z,13.50
2023-01-19T10:34:13.617Z,13.90
2023-01-19T10:35:13.955Z,14.00
2023-01-19T10:36:14.246Z,14.00
2023-01-19T10:37:14.582Z,13.90
2023-01-19T10:38:14.888Z,13.50
2023-01-19T10:39:15.175Z,13.50
2023-01-19T10:40:15.474Z,13.60
2023-01-19T10:41:15.757Z,13.00
2023-01-19T10:42:16.083Z,12.90
2023-01-19T10:43:16.407Z,14.20
2023-01-19T10:44:16.718Z,14.10
2023-01-19T10:45:16.993Z,13.80
2023-01-19T10:46:17.380Z,12.60
2023-01-19T10:47:17.554Z,12.30
2023-01-19T10:48:17.881Z,12.10
2023-01-19T10:49:18.287Z,13.30
2023-01-19T10:50:18.475Z,12.80
2023-01-19T10:51:18.766Z,12.50
2023-01-19T10:52:19.174Z,13.30
2023-01-19T10:53:19.358Z,13.10
2023-01-19T10:54:19.646Z,13.00
2023-01-19T10:55:19.919Z,13.80
2023-01-19T10:56:20.331Z,12.60
2023-01-19T10:57:20.563Z,12.80
2023-01-19T10:58:20.874Z,13.00
2023-01-19T10:59:21.225Z,12.50
2023-01-19T11:00:21.521Z,13.40
2023-01-19T11:01:21.881Z,12.30
2023-01-19T11:02:22.359Z,13.50
2023-01-19T11:03:22.413Z,14.50
2023-01-19T11:04:22.573Z,12.60
2023-01-19T11:05:22.887Z,13.30
2023-01-19T11:06:23.182Z,13.50
2023-01-19T11:07:23.504Z,12.80
2023-01-19T11:08:23.897Z,12.20
2023-01-19T11:09:24.108Z,12.50
2023-01-19T11:10:24.409Z,13.00
2023-01-19T11:11:25.548Z,12.90
2023-01-19T11:12:25.008Z,13.40
2023-01-19T11:13:25.325Z,13.00
2023-01-19T11:14:25.654Z,12.90
2023-01-19T11:15:25.979Z,12.60
2023-01-19T11:16:26.353Z,12.90
2023-01-19T11:17:26.559Z,13.00
2023-01-19T11:18:27.586Z,11.90
2023-01-19T11:19:27.134Z,11.80
2023-01-19T11:20:27.473Z,12.60
2023-01-19T11:21:27.783Z,14.10
2023-01-19T11:22:28.139Z,12.40
2023-01-19T11:23:28.965Z,12.50
2023-01-19T11:24:28.599Z,11.90
2023-01-19T11:25:28.943Z,13.40
2023-01-19T11:26:29.277Z,11.80
2023-01-19T11:27:29.508Z,12.20
2023-01-19T11:28:29.842Z,12.40
2023-01-19T11:29:30.158Z,12.30
2023-01-19T11:30:30.475Z,12.10
2023-01-19T11:31:30.843Z,12.80
2023-01-19T11:32:31.083Z,12.30
2023-01-19T11:33:31.427Z,12.00
2023-01-19T11:34:31.611Z,12.80
2023-01-19T11:35:31.923Z,12.20
2023-01-19T11:36:32.240Z,11.60
2023-01-19T11:37:32.543Z,12.00
2023-01-19T11:38:32.861Z,12.60
2023-01-19T11:39:33.165Z,11.50
2023-01-19T11:40:33.491Z,11.20
2023-01-19T11:41:33.803Z,11.40
2023-01-19T11:42:34.107Z,11.90
2023-01-19T11:43:48.256Z,12.20
2023-01-19T11:44:35.685Z,11.70
2023-01-19T11:45:34.924Z,12.60
2023-01-19T11:46:35.265Z,12.00
2023-01-19T11:47:35.539Z,13.00
2023-01-19T11:48:35.853Z,12.50
2023-01-19T11:49:36.164Z,12.50
2023-01-19T11:50:36.504Z,12.10
2023-01-19T11:51:36.799Z,12.60
2023-01-19T11:52:37.110Z,11.70
2023-01-19T11:53:37.418Z,12.60
2023-01-19T11:54:37.878Z,12.80
2023-01-19T11:55:38.058Z,12.60
2023-01-19T11:56:38.372Z,13.50
2023-01-19T11:57:38.673Z,13.40
2023-01-19T11:58:39.016Z,13.10
2023-01-19T11:59:39.318Z,11.30
2023-01-19T12:00:39.613Z,13.10
2023-01-19T12:01:39.932Z,12.80
2023-01-19T12:02:40.241Z,12.80
2023-01-19T12:03:40.664Z,12.50
2023-01-19T12:04:40.828Z,11.70
2023-01-19T12:05:41.163Z,11.00
2023-01-19T12:06:41.452Z,11.80
2023-01-19T12:07:41.759Z,13.30
2023-01-19T12:08:42.073Z,11.90
2023-01-19T12:09:42.353Z,12.30
2023-01-19T12:10:42.674Z,13.60
2023-01-19T12:11:42.972Z,13.50
2023-01-19T12:12:43.255Z,12.10
2023-01-19T12:13:43.573Z,12.40
2023-01-19T12:14:43.880Z,11.70
2023-01-19T12:15:44.155Z,12.10
2023-01-19T12:16:44.472Z,12.50
2023-01-19T12:17:44.788Z,9.80
2023-01-19T12:18:45.071Z,12.10
2023-01-19T12:19:45.395Z,12.40
2023-01-19T12:20:45.696Z,11.90
2023-01-19T12:21:46.005Z,11.40
2023-01-19T12:22:46.318Z,10.90
2023-01-19T12:23:46.660Z,11.80
2023-01-19T12:24:46.944Z,12.00
2023-01-19T12:25:47.245Z,11.10
2023-01-19T12:26:47.589Z,11.40
2023-01-19T12:27:47.888Z,11.20
2023-01-19T12:28:48.222Z,11.30
2023-01-19T12:29:48.512Z,11.80
2023-01-19T12:30:48.893Z,11.10
2023-01-19T12:31:51.664Z,11.70
2023-01-19T12:32:49.423Z,11.30
2023-01-19T12:33:49.735Z,10.60
2023-01-19T12:34:50.044Z,11.40
2023-01-19T12:35:50.386Z,11.30
2023-01-19T12:36:50.573Z,11.30
2023-01-19T12:37:50.914Z,10.70
2023-01-19T12:38:51.195Z,11.20
2023-01-19T12:39:51.482Z,10.10
2023-01-19T12:40:51.787Z,10.80
2023-01-19T12:41:52.067Z,10.90
2023-01-19T12:42:52.707Z,10.70
2023-01-19T12:43:52.773Z,10.90
2023-01-19T12:44:52.940Z,11.30
2023-01-19T12:45:53.290Z,11.60
2023-01-19T12:46:53.476Z,11.40
2023-01-19T12:47:54.694Z,10.90
2023-01-19T12:48:54.096Z,9.80
2023-01-19T12:49:54.371Z,10.20
2023-01-19T12:50:54.667Z,10.70
2023-01-19T12:51:54.952Z,11.00
2023-01-19T12:52:55.266Z,10.80
2023-01-19T12:53:55.576Z,10.90
2023-01-19T12:54:55.868Z,10.70
2023-01-19T12:55:56.147Z,10.80
2023-01-19T12:56:56.458Z,9.90
2023-01-19T12:57:56.728Z,9.00
2023-01-19T12:58:57.026Z,9.80
2023-01-19T12:59:57.291Z,10.00
2023-01-19T13:00:57.717Z,11.00
2023-01-19T13:01:57.887Z,10.00
2023-01-19T13:02:58.229Z,12.30
2023-01-19T13:03:58.474Z,13.00
2023-01-19T13:04:58.796Z,11.30
2023-01-19T13:05:59.096Z,10.80
2023-01-19T13:06:59.387Z,10.20
2023-01-19T13:07:59.674Z,10.80
2023-01-19T13:08:59.989Z,10.00
2023-01-19T13:10:00.257Z,9.90
2023-01-19T13:11:00.716Z,11.20
2023-01-19T13:12:01.241Z,10.50
2023-01-19T13:13:01.057Z,10.40
2023-01-19T13:14:01.363Z,10.20
2023-01-19T13:15:01.820Z,10.60
2023-01-19T13:16:01.983Z,10.90
2023-01-19T13:17:02.268Z,10.60
2023-01-19T13:18:02.521Z,9.60
2023-01-19T13:19:02.790Z,10.00
2023-01-19T13:20:03.061Z,10.00
2023-01-19T13:21:03.332Z,10.70
2023-01-19T13:22:03.629Z,10.60
2023-01-19T13:23:03.948Z,10.00
2023-01-19T13:24:04.262Z,10.50
2023-01-19T13:25:04.567Z,10.60
2023-01-19T13:26:04.841Z,10.70
2023-01-19T13:27:05.106Z,10.50
2023-01-19T13:28:05.372Z,11.10
2023-01-19T13:29:05.675Z,10.30
2023-01-19T13:30:05.959Z,10.50
2023-01-19T13:31:06.351Z,10.80
2023-01-19T13:32:06.504Z,10.50
2023-01-19T13:33:06.790Z,10.20
2023-01-19T13:34:07.120Z,10.70
2023-01-19T13:35:07.407Z,11.10
2023-01-19T13:36:07.722Z,9.80
2023-01-19T13:37:07.980Z,10.60
2023-01-19T13:38:08.275Z,10.10
2023-01-19T13:39:08.712Z,10.20
2023-01-19T13:40:08.861Z,10.30